sensor_id;sensor_type;location;lat;lon;timestamp;P1;durP1;ratioP1;P2;durP2;ratioP2
21999;SDS011;11164;48.818;2.322;2022-08-21T00:01:15;8.38;;;3.42;;
21999;SDS011;11164;48.818;2.322;2022-08-21T00:03:43;9.35;;;2.78;;
21999;SDS011;11164;48.818;2.322;2022-08-21T00:06:08;9.27;;;2.70;;
21999;SDS011;11164;48.818;2.322;2022-08-21T00:08:34;7.38;;;3.00;;
21999;SDS011;11164;48.818;2.322;2022-08-21T00:10:59;8.70;;;2.75;;
21999;SDS011;11164;48.818;2.322;2022-08-21T00:13:25;7.18;;;2.60;;
21999;SDS011;11164;48.818;2.322;2022-08-21T00:15:51;8.20;;;2.83;;
21999;SDS011;11164;48.818;2.322;2022-08-21T00:18:17;7.90;;;2.53;;
21999;SDS011;11164;48.818;2.322;2022-08-21T00:20:44;10.43;;;2.83;;
21999;SDS011;11164;48.818;2.322;2022-08-21T00:23:10;12.32;;;2.97;;
21999;SDS011;11164;48.818;2.322;2022-08-21T00:25:37;5.93;;;2.47;;
21999;SDS011;11164;48.818;2.322;2022-08-21T00:28:03;9.55;;;2.78;;
21999;SDS011;11164;48.818;2.322;2022-08-21T00:30:30;8.38;;;2.67;;
21999;SDS011;11164;48.818;2.322;2022-08-21T00:32:56;8.38;;;2.60;;
21999;SDS011;11164;48.818;2.322;2022-08-21T00:35:26;10.07;;;2.30;;
21999;SDS011;11164;48.818;2.322;2022-08-21T00:37:54;8.90;;;2.40;;
21999;SDS011;11164;48.818;2.322;2022-08-21T00:40:21;8.27;;;2.10;;
21999;SDS011;11164;48.818;2.322;2022-08-21T00:42:57;10.90;;;2.45;;
21999;SDS011;11164;48.818;2.322;2022-08-21T00:45:23;9.73;;;2.25;;
21999;SDS011;11164;48.818;2.322;2022-08-21T00:47:50;10.32;;;2.17;;
21999;SDS011;11164;48.818;2.322;2022-08-21T00:50:16;7.38;;;2.35;;
21999;SDS011;11164;48.818;2.322;2022-08-21T00:52:43;8.07;;;2.40;;
21999;SDS011;11164;48.818;2.322;2022-08-21T00:55:10;8.07;;;2.50;;
21999;SDS011;11164;48.818;2.322;2022-08-21T00:57:44;9.65;;;2.20;;
21999;SDS011;11164;48.818;2.322;2022-08-21T01:00:16;7.25;;;1.90;;
21999;SDS011;11164;48.818;2.322;2022-08-21T01:02:44;8.48;;;2.55;;
21999;SDS011;11164;48.818;2.322;2022-08-21T01:05:10;7.95;;;2.22;;
21999;SDS011;11164;48.818;2.322;2022-08-21T01:07:36;11.70;;;2.50;;
21999;SDS011;11164;48.818;2.322;2022-08-21T01:10:03;8.63;;;2.50;;
21999;SDS011;11164;48.818;2.322;2022-08-21T01:12:30;8.68;;;2.40;;
21999;SDS011;11164;48.818;2.322;2022-08-21T01:14:56;6.70;;;2.22;;
21999;SDS011;11164;48.818;2.322;2022-08-21T01:17:23;6.45;;;2.13;;
21999;SDS011;11164;48.818;2.322;2022-08-21T01:19:51;7.65;;;2.17;;
21999;SDS011;11164;48.818;2.322;2022-08-21T01:22:18;10.60;;;2.45;;
21999;SDS011;11164;48.818;2.322;2022-08-21T01:24:44;7.97;;;1.92;;
21999;SDS011;11164;48.818;2.322;2022-08-21T01:27:09;6.53;;;2.20;;
21999;SDS011;11164;48.818;2.322;2022-08-21T01:29:42;8.77;;;2.40;;
21999;SDS011;11164;48.818;2.322;2022-08-21T01:32:13;6.78;;;2.00;;
21999;SDS011;11164;48.818;2.322;2022-08-21T01:34:41;8.75;;;2.17;;
21999;SDS011;11164;48.818;2.322;2022-08-21T01:37:09;11.32;;;2.10;;
21999;SDS011;11164;48.818;2.322;2022-08-21T01:39:35;7.80;;;2.40;;
21999;SDS011;11164;48.818;2.322;2022-08-21T01:42:00;8.70;;;2.72;;
21999;SDS011;11164;48.818;2.322;2022-08-21T01:44:26;7.68;;;2.85;;
21999;SDS011;11164;48.818;2.322;2022-08-21T01:46:52;11.60;;;2.78;;
21999;SDS011;11164;48.818;2.322;2022-08-21T01:49:18;11.15;;;2.55;;
21999;SDS011;11164;48.818;2.322;2022-08-21T01:51:44;9.45;;;2.50;;
21999;SDS011;11164;48.818;2.322;2022-08-21T01:54:10;6.05;;;2.13;;
21999;SDS011;11164;48.818;2.322;2022-08-21T01:56:37;8.35;;;2.20;;
21999;SDS011;11164;48.818;2.322;2022-08-21T01:59:08;11.07;;;2.25;;
21999;SDS011;11164;48.818;2.322;2022-08-21T02:01:34;8.52;;;2.03;;
21999;SDS011;11164;48.818;2.322;2022-08-21T02:04:01;8.65;;;2.10;;
21999;SDS011;11164;48.818;2.322;2022-08-21T02:06:26;11.25;;;2.50;;
21999;SDS011;11164;48.818;2.322;2022-08-21T02:08:52;7.75;;;2.42;;
21999;SDS011;11164;48.818;2.322;2022-08-21T02:11:20;7.60;;;2.38;;
21999;SDS011;11164;48.818;2.322;2022-08-21T02:13:46;6.80;;;2.25;;
21999;SDS011;11164;48.818;2.322;2022-08-21T02:16:12;12.63;;;2.53;;
21999;SDS011;11164;48.818;2.322;2022-08-21T02:18:38;6.00;;;2.15;;
21999;SDS011;11164;48.818;2.322;2022-08-21T02:21:04;6.88;;;2.38;;
21999;SDS011;11164;48.818;2.322;2022-08-21T02:23:31;7.05;;;2.25;;
21999;SDS011;11164;48.818;2.322;2022-08-21T02:25:58;7.15;;;2.28;;
21999;SDS011;11164;48.818;2.322;2022-08-21T02:28:25;8.80;;;2.53;;
21999;SDS011;11164;48.818;2.322;2022-08-21T02:30:51;10.45;;;2.28;;
21999;SDS011;11164;48.818;2.322;2022-08-21T02:33:18;6.97;;;2.08;;
21999;SDS011;11164;48.818;2.322;2022-08-21T02:35:44;6.60;;;2.47;;
21999;SDS011;11164;48.818;2.322;2022-08-21T02:38:13;9.43;;;3.15;;
21999;SDS011;11164;48.818;2.322;2022-08-21T02:40:41;10.05;;;3.22;;
21999;SDS011;11164;48.818;2.322;2022-08-21T02:43:09;9.15;;;2.60;;
21999;SDS011;11164;48.818;2.322;2022-08-21T02:45:35;9.43;;;2.38;;
21999;SDS011;11164;48.818;2.322;2022-08-21T02:48:03;7.95;;;2.80;;
21999;SDS011;11164;48.818;2.322;2022-08-21T02:50:32;8.43;;;2.50;;
21999;SDS011;11164;48.818;2.322;2022-08-21T02:52:59;8.57;;;2.50;;
21999;SDS011;11164;48.818;2.322;2022-08-21T02:55:26;8.45;;;1.95;;
21999;SDS011;11164;48.818;2.322;2022-08-21T02:57:53;8.00;;;2.67;;
21999;SDS011;11164;48.818;2.322;2022-08-21T03:00:20;8.73;;;2.20;;
21999;SDS011;11164;48.818;2.322;2022-08-21T03:02:48;10.23;;;2.25;;
21999;SDS011;11164;48.818;2.322;2022-08-21T03:05:14;8.38;;;2.25;;
21999;SDS011;11164;48.818;2.322;2022-08-21T03:07:41;10.23;;;2.35;;
21999;SDS011;11164;48.818;2.322;2022-08-21T03:10:07;7.95;;;2.35;;
21999;SDS011;11164;48.818;2.322;2022-08-21T03:12:33;7.95;;;2.38;;
21999;SDS011;11164;48.818;2.322;2022-08-21T03:15:00;10.23;;;2.22;;
21999;SDS011;11164;48.818;2.322;2022-08-21T03:17:26;7.28;;;2.15;;
21999;SDS011;11164;48.818;2.322;2022-08-21T03:19:52;7.65;;;2.47;;
21999;SDS011;11164;48.818;2.322;2022-08-21T03:22:18;10.02;;;2.38;;
21999;SDS011;11164;48.818;2.322;2022-08-21T03:24:43;7.85;;;1.92;;
21999;SDS011;11164;48.818;2.322;2022-08-21T03:27:10;9.85;;;2.40;;
21999;SDS011;11164;48.818;2.322;2022-08-21T03:29:37;7.50;;;2.22;;
21999;SDS011;11164;48.818;2.322;2022-08-21T03:32:03;8.73;;;2.03;;
21999;SDS011;11164;48.818;2.322;2022-08-21T03:34:29;10.32;;;2.22;;
21999;SDS011;11164;48.818;2.322;2022-08-21T03:36:54;8.43;;;2.20;;
21999;SDS011;11164;48.818;2.322;2022-08-21T03:39:20;8.13;;;2.50;;
21999;SDS011;11164;48.818;2.322;2022-08-21T03:41:45;10.63;;;2.50;;
21999;SDS011;11164;48.818;2.322;2022-08-21T03:44:12;10.25;;;2.03;;
21999;SDS011;11164;48.818;2.322;2022-08-21T03:46:38;12.15;;;2.78;;
21999;SDS011;11164;48.818;2.322;2022-08-21T03:49:05;9.27;;;2.45;;
21999;SDS011;11164;48.818;2.322;2022-08-21T03:51:30;11.43;;;2.65;;
21999;SDS011;11164;48.818;2.322;2022-08-21T03:53:57;7.95;;;2.33;;
21999;SDS011;11164;48.818;2.322;2022-08-21T03:56:22;8.18;;;2.50;;
21999;SDS011;11164;48.818;2.322;2022-08-21T03:58:48;9.70;;;2.40;;
21999;SDS011;11164;48.818;2.322;2022-08-21T04:01:14;10.27;;;3.03;;
21999;SDS011;11164;48.818;2.322;2022-08-21T04:03:39;8.90;;;2.60;;
21999;SDS011;11164;48.818;2.322;2022-08-21T04:06:05;9.02;;;2.90;;
21999;SDS011;11164;48.818;2.322;2022-08-21T04:08:31;11.15;;;4.90;;
21999;SDS011;11164;48.818;2.322;2022-08-21T04:10:56;10.70;;;4.30;;
21999;SDS011;11164;48.818;2.322;2022-08-21T04:13:23;9.82;;;3.08;;
21999;SDS011;11164;48.818;2.322;2022-08-21T04:15:49;9.40;;;2.95;;
21999;SDS011;11164;48.818;2.322;2022-08-21T04:18:15;10.43;;;2.83;;
21999;SDS011;11164;48.818;2.322;2022-08-21T04:20:41;8.02;;;2.70;;
21999;SDS011;11164;48.818;2.322;2022-08-21T04:23:08;5.68;;;2.92;;
21999;SDS011;11164;48.818;2.322;2022-08-21T04:25:33;8.00;;;2.80;;
21999;SDS011;11164;48.818;2.322;2022-08-21T04:28:00;10.25;;;3.05;;
21999;SDS011;11164;48.818;2.322;2022-08-21T04:30:26;8.95;;;3.00;;
21999;SDS011;11164;48.818;2.322;2022-08-21T04:32:52;7.90;;;2.75;;
21999;SDS011;11164;48.818;2.322;2022-08-21T04:35:18;11.98;;;3.63;;
21999;SDS011;11164;48.818;2.322;2022-08-21T04:37:45;9.38;;;2.90;;
21999;SDS011;11164;48.818;2.322;2022-08-21T04:40:12;8.82;;;3.33;;
21999;SDS011;11164;48.818;2.322;2022-08-21T04:42:43;11.32;;;3.47;;
21999;SDS011;11164;48.818;2.322;2022-08-21T04:45:17;11.25;;;3.22;;
21999;SDS011;11164;48.818;2.322;2022-08-21T04:47:50;10.30;;;3.38;;
21999;SDS011;11164;48.818;2.322;2022-08-21T04:50:16;14.93;;;3.45;;
21999;SDS011;11164;48.818;2.322;2022-08-21T04:52:42;8.35;;;3.35;;
21999;SDS011;11164;48.818;2.322;2022-08-21T04:55:08;8.85;;;3.20;;
21999;SDS011;11164;48.818;2.322;2022-08-21T04:57:34;11.95;;;3.42;;
21999;SDS011;11164;48.818;2.322;2022-08-21T05:00:00;9.20;;;3.13;;
21999;SDS011;11164;48.818;2.322;2022-08-21T05:02:26;9.55;;;3.50;;
21999;SDS011;11164;48.818;2.322;2022-08-21T05:04:52;9.90;;;3.00;;
21999;SDS011;11164;48.818;2.322;2022-08-21T05:07:21;8.10;;;3.10;;
21999;SDS011;11164;48.818;2.322;2022-08-21T05:09:51;12.60;;;3.17;;
21999;SDS011;11164;48.818;2.322;2022-08-21T05:12:17;7.30;;;2.60;;
21999;SDS011;11164;48.818;2.322;2022-08-21T05:14:42;12.35;;;3.17;;
21999;SDS011;11164;48.818;2.322;2022-08-21T05:17:08;10.30;;;2.95;;
21999;SDS011;11164;48.818;2.322;2022-08-21T05:19:34;7.05;;;3.47;;
21999;SDS011;11164;48.818;2.322;2022-08-21T05:22:00;6.25;;;2.90;;
21999;SDS011;11164;48.818;2.322;2022-08-21T05:24:26;9.88;;;3.00;;
21999;SDS011;11164;48.818;2.322;2022-08-21T05:26:52;10.02;;;2.60;;
21999;SDS011;11164;48.818;2.322;2022-08-21T05:29:17;10.30;;;2.95;;
21999;SDS011;11164;48.818;2.322;2022-08-21T05:31:44;8.80;;;2.70;;
21999;SDS011;11164;48.818;2.322;2022-08-21T05:34:10;8.02;;;2.45;;
21999;SDS011;11164;48.818;2.322;2022-08-21T05:36:35;7.82;;;2.70;;
21999;SDS011;11164;48.818;2.322;2022-08-21T05:39:01;11.60;;;2.72;;
21999;SDS011;11164;48.818;2.322;2022-08-21T05:41:27;7.28;;;2.20;;
21999;SDS011;11164;48.818;2.322;2022-08-21T05:43:53;10.32;;;2.72;;
21999;SDS011;11164;48.818;2.322;2022-08-21T05:46:19;7.53;;;2.67;;
21999;SDS011;11164;48.818;2.322;2022-08-21T05:48:44;8.25;;;2.25;;
21999;SDS011;11164;48.818;2.322;2022-08-21T05:51:13;6.57;;;2.25;;
21999;SDS011;11164;48.818;2.322;2022-08-21T05:53:40;8.00;;;2.63;;
21999;SDS011;11164;48.818;2.322;2022-08-21T05:56:08;7.47;;;2.35;;
21999;SDS011;11164;48.818;2.322;2022-08-21T05:58:34;7.15;;;2.53;;
21999;SDS011;11164;48.818;2.322;2022-08-21T06:01:01;7.07;;;2.30;;
21999;SDS011;11164;48.818;2.322;2022-08-21T06:03:29;8.80;;;2.20;;
21999;SDS011;11164;48.818;2.322;2022-08-21T06:05:57;8.68;;;2.40;;
21999;SDS011;11164;48.818;2.322;2022-08-21T06:08:23;7.53;;;2.40;;
21999;SDS011;11164;48.818;2.322;2022-08-21T06:10:51;10.40;;;2.70;;
21999;SDS011;11164;48.818;2.322;2022-08-21T06:13:17;9.13;;;2.45;;
21999;SDS011;11164;48.818;2.322;2022-08-21T06:15:44;12.10;;;2.83;;
21999;SDS011;11164;48.818;2.322;2022-08-21T06:18:10;8.98;;;2.63;;
21999;SDS011;11164;48.818;2.322;2022-08-21T06:20:35;8.27;;;2.53;;
21999;SDS011;11164;48.818;2.322;2022-08-21T06:23:01;6.20;;;2.40;;
21999;SDS011;11164;48.818;2.322;2022-08-21T06:25:29;8.55;;;2.50;;
21999;SDS011;11164;48.818;2.322;2022-08-21T06:28:05;9.70;;;2.30;;
21999;SDS011;11164;48.818;2.322;2022-08-21T06:30:34;11.40;;;2.65;;
21999;SDS011;11164;48.818;2.322;2022-08-21T06:33:01;6.32;;;2.40;;
21999;SDS011;11164;48.818;2.322;2022-08-21T06:35:27;5.93;;;2.13;;
21999;SDS011;11164;48.818;2.322;2022-08-21T06:37:54;8.50;;;2.30;;
21999;SDS011;11164;48.818;2.322;2022-08-21T06:40:19;8.80;;;2.60;;
21999;SDS011;11164;48.818;2.322;2022-08-21T06:42:44;9.90;;;2.72;;
21999;SDS011;11164;48.818;2.322;2022-08-21T06:45:10;10.75;;;2.60;;
21999;SDS011;11164;48.818;2.322;2022-08-21T06:47:36;7.28;;;3.03;;
21999;SDS011;11164;48.818;2.322;2022-08-21T06:50:01;10.18;;;2.60;;
21999;SDS011;11164;48.818;2.322;2022-08-21T06:52:28;9.23;;;2.55;;
21999;SDS011;11164;48.818;2.322;2022-08-21T06:54:54;9.25;;;2.90;;
21999;SDS011;11164;48.818;2.322;2022-08-21T06:57:19;9.10;;;2.65;;
21999;SDS011;11164;48.818;2.322;2022-08-21T06:59:44;7.95;;;2.70;;
21999;SDS011;11164;48.818;2.322;2022-08-21T07:02:10;7.88;;;2.38;;
21999;SDS011;11164;48.818;2.322;2022-08-21T07:04:35;8.57;;;2.50;;
21999;SDS011;11164;48.818;2.322;2022-08-21T07:07:01;9.88;;;2.58;;
21999;SDS011;11164;48.818;2.322;2022-08-21T07:09:27;9.02;;;2.75;;
21999;SDS011;11164;48.818;2.322;2022-08-21T07:11:53;13.10;;;3.60;;
21999;SDS011;11164;48.818;2.322;2022-08-21T07:14:20;8.85;;;2.90;;
21999;SDS011;11164;48.818;2.322;2022-08-21T07:16:46;7.85;;;2.40;;
21999;SDS011;11164;48.818;2.322;2022-08-21T07:19:12;9.45;;;2.63;;
21999;SDS011;11164;48.818;2.322;2022-08-21T07:21:37;6.90;;;2.38;;
21999;SDS011;11164;48.818;2.322;2022-08-21T07:24:03;7.65;;;2.70;;
21999;SDS011;11164;48.818;2.322;2022-08-21T07:26:28;12.85;;;2.75;;
21999;SDS011;11164;48.818;2.322;2022-08-21T07:28:53;14.55;;;3.53;;
21999;SDS011;11164;48.818;2.322;2022-08-21T07:31:20;11.55;;;3.20;;
21999;SDS011;11164;48.818;2.322;2022-08-21T07:33:47;8.50;;;2.50;;
21999;SDS011;11164;48.818;2.322;2022-08-21T07:36:13;6.10;;;2.58;;
21999;SDS011;11164;48.818;2.322;2022-08-21T07:38:39;7.38;;;2.70;;
21999;SDS011;11164;48.818;2.322;2022-08-21T07:41:26;9.55;;;3.35;;
21999;SDS011;11164;48.818;2.322;2022-08-21T07:43:53;8.90;;;2.33;;
21999;SDS011;11164;48.818;2.322;2022-08-21T07:46:22;8.82;;;2.80;;
21999;SDS011;11164;48.818;2.322;2022-08-21T07:48:48;7.93;;;2.78;;
21999;SDS011;11164;48.818;2.322;2022-08-21T07:51:14;7.47;;;2.67;;
21999;SDS011;11164;48.818;2.322;2022-08-21T07:53:41;7.20;;;2.55;;
21999;SDS011;11164;48.818;2.322;2022-08-21T07:56:12;9.80;;;2.95;;
21999;SDS011;11164;48.818;2.322;2022-08-21T07:58:37;8.55;;;2.70;;
21999;SDS011;11164;48.818;2.322;2022-08-21T08:01:02;7.07;;;2.70;;
21999;SDS011;11164;48.818;2.322;2022-08-21T08:03:29;8.40;;;2.78;;
21999;SDS011;11164;48.818;2.322;2022-08-21T08:05:55;9.40;;;2.72;;
21999;SDS011;11164;48.818;2.322;2022-08-21T08:08:21;7.20;;;2.67;;
21999;SDS011;11164;48.818;2.322;2022-08-21T08:10:46;8.50;;;2.78;;
21999;SDS011;11164;48.818;2.322;2022-08-21T08:13:12;9.65;;;2.80;;
21999;SDS011;11164;48.818;2.322;2022-08-21T08:15:37;7.10;;;2.67;;
21999;SDS011;11164;48.818;2.322;2022-08-21T08:18:03;8.82;;;2.67;;
21999;SDS011;11164;48.818;2.322;2022-08-21T08:20:28;8.88;;;2.85;;
21999;SDS011;11164;48.818;2.322;2022-08-21T08:22:54;8.00;;;2.53;;
21999;SDS011;11164;48.818;2.322;2022-08-21T08:25:21;9.05;;;2.78;;
21999;SDS011;11164;48.818;2.322;2022-08-21T08:27:48;8.70;;;2.50;;
21999;SDS011;11164;48.818;2.322;2022-08-21T08:30:14;8.55;;;2.67;;
21999;SDS011;11164;48.818;2.322;2022-08-21T08:32:41;7.43;;;2.63;;
21999;SDS011;11164;48.818;2.322;2022-08-21T08:35:08;11.07;;;3.33;;
21999;SDS011;11164;48.818;2.322;2022-08-21T08:37:34;13.82;;;3.45;;
21999;SDS011;11164;48.818;2.322;2022-08-21T08:40:02;11.82;;;3.25;;
21999;SDS011;11164;48.818;2.322;2022-08-21T08:42:35;12.73;;;3.10;;
21999;SDS011;11164;48.818;2.322;2022-08-21T08:47:31;9.52;;;2.50;;
21999;SDS011;11164;48.818;2.322;2022-08-21T08:52:29;10.20;;;2.85;;
21999;SDS011;11164;48.818;2.322;2022-08-21T08:55:06;9.05;;;2.70;;
21999;SDS011;11164;48.818;2.322;2022-08-21T08:57:34;7.47;;;3.08;;
21999;SDS011;11164;48.818;2.322;2022-08-21T09:00:06;7.65;;;2.72;;
21999;SDS011;11164;48.818;2.322;2022-08-21T09:02:35;9.32;;;3.22;;
21999;SDS011;11164;48.818;2.322;2022-08-21T09:05:04;8.00;;;2.72;;
21999;SDS011;11164;48.818;2.322;2022-08-21T09:07:47;9.02;;;2.60;;
21999;SDS011;11164;48.818;2.322;2022-08-21T09:18:27;7.78;;;2.83;;
21999;SDS011;11164;48.818;2.322;2022-08-21T09:26:27;7.15;;;2.38;;
21999;SDS011;11164;48.818;2.322;2022-08-21T09:29:05;7.63;;;2.50;;
21999;SDS011;11164;48.818;2.322;2022-08-21T09:31:36;5.90;;;2.25;;
21999;SDS011;11164;48.818;2.322;2022-08-21T09:34:05;10.70;;;2.60;;
21999;SDS011;11164;48.818;2.322;2022-08-21T09:36:47;9.27;;;2.53;;
21999;SDS011;11164;48.818;2.322;2022-08-21T09:39:22;6.60;;;2.50;;
21999;SDS011;11164;48.818;2.322;2022-08-21T09:44:23;6.88;;;2.45;;
21999;SDS011;11164;48.818;2.322;2022-08-21T09:46:51;10.52;;;2.45;;
21999;SDS011;11164;48.818;2.322;2022-08-21T09:49:26;7.80;;;2.63;;
21999;SDS011;11164;48.818;2.322;2022-08-21T09:51:53;5.47;;;2.42;;
21999;SDS011;11164;48.818;2.322;2022-08-21T09:54:20;7.40;;;2.45;;
21999;SDS011;11164;48.818;2.322;2022-08-21T09:59:42;9.02;;;2.55;;
21999;SDS011;11164;48.818;2.322;2022-08-21T10:04:58;8.60;;;2.40;;
21999;SDS011;11164;48.818;2.322;2022-08-21T10:07:29;5.57;;;1.98;;
21999;SDS011;11164;48.818;2.322;2022-08-21T10:10:00;6.50;;;2.20;;
21999;SDS011;11164;48.818;2.322;2022-08-21T10:12:29;6.45;;;1.92;;
21999;SDS011;11164;48.818;2.322;2022-08-21T10:15:22;6.88;;;2.53;;
21999;SDS011;11164;48.818;2.322;2022-08-21T10:20:47;7.22;;;2.70;;
21999;SDS011;11164;48.818;2.322;2022-08-21T10:29:02;5.72;;;2.38;;
21999;SDS011;11164;48.818;2.322;2022-08-21T10:48:22;7.83;;;2.10;;
21999;SDS011;11164;48.818;2.322;2022-08-21T10:50:59;8.40;;;2.10;;
21999;SDS011;11164;48.818;2.322;2022-08-21T10:58:40;18.77;;;12.10;;
21999;SDS011;11164;48.818;2.322;2022-08-21T11:01:47;7.07;;;2.50;;
21999;SDS011;11164;48.818;2.322;2022-08-21T11:04:19;6.22;;;2.42;;
21999;SDS011;11164;48.818;2.322;2022-08-21T11:06:52;6.78;;;2.47;;
21999;SDS011;11164;48.818;2.322;2022-08-21T11:09:24;5.72;;;2.20;;
21999;SDS011;11164;48.818;2.322;2022-08-21T11:11:56;9.77;;;2.80;;
21999;SDS011;11164;48.818;2.322;2022-08-21T11:14:40;7.10;;;2.30;;
21999;SDS011;11164;48.818;2.322;2022-08-21T11:17:12;8.50;;;2.42;;
21999;SDS011;11164;48.818;2.322;2022-08-21T11:19:45;8.55;;;2.60;;
21999;SDS011;11164;48.818;2.322;2022-08-21T11:27:43;7.95;;;2.63;;
21999;SDS011;11164;48.818;2.322;2022-08-21T11:30:14;6.22;;;2.60;;
21999;SDS011;11164;48.818;2.322;2022-08-21T11:35:46;6.90;;;2.30;;
21999;SDS011;11164;48.818;2.322;2022-08-21T11:38:19;8.98;;;2.53;;
21999;SDS011;11164;48.818;2.322;2022-08-21T11:46:09;6.32;;;2.25;;
21999;SDS011;11164;48.818;2.322;2022-08-21T11:51:33;5.90;;;1.70;;
21999;SDS011;11164;48.818;2.322;2022-08-21T11:54:31;7.28;;;1.88;;
21999;SDS011;11164;48.818;2.322;2022-08-21T11:57:05;7.53;;;2.08;;
21999;SDS011;11164;48.818;2.322;2022-08-21T11:59:39;5.78;;;1.73;;
21999;SDS011;11164;48.818;2.322;2022-08-21T12:02:13;7.22;;;1.63;;
21999;SDS011;11164;48.818;2.322;2022-08-21T12:04:51;4.40;;;1.60;;
21999;SDS011;11164;48.818;2.322;2022-08-21T12:07:34;5.55;;;1.83;;
21999;SDS011;11164;48.818;2.322;2022-08-21T12:10:12;5.20;;;1.55;;
21999;SDS011;11164;48.818;2.322;2022-08-21T12:12:41;3.90;;;1.60;;
21999;SDS011;11164;48.818;2.322;2022-08-21T12:20:45;4.70;;;1.55;;
21999;SDS011;11164;48.818;2.322;2022-08-21T12:23:44;5.40;;;1.77;;
21999;SDS011;11164;48.818;2.322;2022-08-21T12:28:38;4.40;;;1.95;;
21999;SDS011;11164;48.818;2.322;2022-08-21T12:31:21;5.38;;;1.38;;
21999;SDS011;11164;48.818;2.322;2022-08-21T12:33:54;5.50;;;1.60;;
21999;SDS011;11164;48.818;2.322;2022-08-21T12:36:24;4.22;;;1.30;;
21999;SDS011;11164;48.818;2.322;2022-08-21T12:39:10;6.55;;;1.70;;
21999;SDS011;11164;48.818;2.322;2022-08-21T12:41:43;3.53;;;1.23;;
21999;SDS011;11164;48.818;2.322;2022-08-21T12:44:14;3.38;;;1.25;;
21999;SDS011;11164;48.818;2.322;2022-08-21T12:47:12;2.92;;;1.10;;
21999;SDS011;11164;48.818;2.322;2022-08-21T12:49:56;4.82;;;1.48;;
21999;SDS011;11164;48.818;2.322;2022-08-21T12:52:30;3.20;;;1.00;;
21999;SDS011;11164;48.818;2.322;2022-08-21T12:54:58;5.05;;;1.10;;
21999;SDS011;11164;48.818;2.322;2022-08-21T12:57:26;2.35;;;1.00;;
21999;SDS011;11164;48.818;2.322;2022-08-21T13:02:34;2.60;;;1.00;;
21999;SDS011;11164;48.818;2.322;2022-08-21T13:05:08;3.25;;;1.77;;
21999;SDS011;11164;48.818;2.322;2022-08-21T13:07:42;2.75;;;0.80;;
21999;SDS011;11164;48.818;2.322;2022-08-21T13:10:21;1.73;;;0.60;;
21999;SDS011;11164;48.818;2.322;2022-08-21T13:12:49;3.38;;;0.80;;
21999;SDS011;11164;48.818;2.322;2022-08-21T13:15:21;1.83;;;0.65;;
21999;SDS011;11164;48.818;2.322;2022-08-21T13:17:55;2.35;;;0.60;;
21999;SDS011;11164;48.818;2.322;2022-08-21T13:20:28;3.30;;;0.80;;
21999;SDS011;11164;48.818;2.322;2022-08-21T13:23:18;1.90;;;0.70;;
21999;SDS011;11164;48.818;2.322;2022-08-21T13:25:44;2.80;;;1.05;;
21999;SDS011;11164;48.818;2.322;2022-08-21T13:28:10;2.58;;;0.80;;
21999;SDS011;11164;48.818;2.322;2022-08-21T13:30:43;2.50;;;1.00;;
21999;SDS011;11164;48.818;2.322;2022-08-21T13:33:11;4.47;;;1.10;;
21999;SDS011;11164;48.818;2.322;2022-08-21T13:35:47;4.93;;;0.80;;
21999;SDS011;11164;48.818;2.322;2022-08-21T13:38:16;3.08;;;0.70;;
21999;SDS011;11164;48.818;2.322;2022-08-21T13:40:51;2.35;;;1.10;;
21999;SDS011;11164;48.818;2.322;2022-08-21T13:43:22;2.55;;;0.90;;
21999;SDS011;11164;48.818;2.322;2022-08-21T13:45:53;4.13;;;0.80;;
21999;SDS011;11164;48.818;2.322;2022-08-21T13:48:22;3.33;;;1.00;;
21999;SDS011;11164;48.818;2.322;2022-08-21T13:50:51;2.78;;;0.90;;
21999;SDS011;11164;48.818;2.322;2022-08-21T13:55:58;3.60;;;0.95;;
21999;SDS011;11164;48.818;2.322;2022-08-21T13:58:29;2.17;;;0.70;;
21999;SDS011;11164;48.818;2.322;2022-08-21T14:01:15;4.35;;;0.90;;
21999;SDS011;11164;48.818;2.322;2022-08-21T14:03:49;4.00;;;1.02;;
21999;SDS011;11164;48.818;2.322;2022-08-21T14:06:18;3.47;;;0.80;;
21999;SDS011;11164;48.818;2.322;2022-08-21T14:08:54;3.10;;;0.80;;
21999;SDS011;11164;48.818;2.322;2022-08-21T14:11:22;3.00;;;0.90;;
21999;SDS011;11164;48.818;2.322;2022-08-21T14:13:51;3.65;;;0.88;;
21999;SDS011;11164;48.818;2.322;2022-08-21T14:16:24;4.07;;;1.08;;
21999;SDS011;11164;48.818;2.322;2022-08-21T14:21:31;3.78;;;1.08;;
21999;SDS011;11164;48.818;2.322;2022-08-21T14:24:05;3.60;;;0.90;;
21999;SDS011;11164;48.818;2.322;2022-08-21T14:26:43;5.10;;;0.82;;
21999;SDS011;11164;48.818;2.322;2022-08-21T14:29:19;2.83;;;0.80;;
21999;SDS011;11164;48.818;2.322;2022-08-21T14:31:51;2.53;;;0.70;;
21999;SDS011;11164;48.818;2.322;2022-08-21T14:34:18;2.58;;;0.70;;
21999;SDS011;11164;48.818;2.322;2022-08-21T14:36:46;2.10;;;0.65;;
21999;SDS011;11164;48.818;2.322;2022-08-21T14:39:12;2.78;;;1.00;;
21999;SDS011;11164;48.818;2.322;2022-08-21T14:41:39;2.80;;;0.73;;
21999;SDS011;11164;48.818;2.322;2022-08-21T14:44:04;2.53;;;0.70;;
21999;SDS011;11164;48.818;2.322;2022-08-21T14:46:32;1.95;;;0.60;;
21999;SDS011;11164;48.818;2.322;2022-08-21T14:48:59;2.38;;;0.50;;
21999;SDS011;11164;48.818;2.322;2022-08-21T14:51:27;4.65;;;0.60;;
21999;SDS011;11164;48.818;2.322;2022-08-21T14:53:53;2.00;;;0.50;;
21999;SDS011;11164;48.818;2.322;2022-08-21T14:56:19;1.67;;;0.63;;
21999;SDS011;11164;48.818;2.322;2022-08-21T14:58:46;2.33;;;0.70;;
21999;SDS011;11164;48.818;2.322;2022-08-21T15:01:14;4.50;;;0.75;;
21999;SDS011;11164;48.818;2.322;2022-08-21T15:03:40;3.17;;;0.80;;
21999;SDS011;11164;48.818;2.322;2022-08-21T15:06:08;4.63;;;0.82;;
21999;SDS011;11164;48.818;2.322;2022-08-21T15:08:34;2.88;;;0.68;;
21999;SDS011;11164;48.818;2.322;2022-08-21T15:11:00;3.03;;;1.10;;
21999;SDS011;11164;48.818;2.322;2022-08-21T15:13:27;3.67;;;1.00;;
21999;SDS011;11164;48.818;2.322;2022-08-21T15:15:53;2.95;;;0.88;;
21999;SDS011;11164;48.818;2.322;2022-08-21T15:18:21;3.15;;;0.82;;
21999;SDS011;11164;48.818;2.322;2022-08-21T15:20:49;3.22;;;0.90;;
21999;SDS011;11164;48.818;2.322;2022-08-21T15:23:15;3.95;;;1.00;;
21999;SDS011;11164;48.818;2.322;2022-08-21T15:25:42;4.10;;;1.00;;
21999;SDS011;11164;48.818;2.322;2022-08-21T15:28:09;3.88;;;1.00;;
21999;SDS011;11164;48.818;2.322;2022-08-21T15:30:36;3.25;;;0.77;;
21999;SDS011;11164;48.818;2.322;2022-08-21T15:33:04;3.08;;;0.90;;
21999;SDS011;11164;48.818;2.322;2022-08-21T15:35:30;4.43;;;0.90;;
21999;SDS011;11164;48.818;2.322;2022-08-21T15:37:55;6.25;;;1.10;;
21999;SDS011;11164;48.818;2.322;2022-08-21T15:40:21;3.35;;;0.80;;
21999;SDS011;11164;48.818;2.322;2022-08-21T15:42:46;2.90;;;0.80;;
21999;SDS011;11164;48.818;2.322;2022-08-21T15:45:12;3.85;;;1.00;;
21999;SDS011;11164;48.818;2.322;2022-08-21T15:47:39;2.90;;;0.80;;
21999;SDS011;11164;48.818;2.322;2022-08-21T15:50:10;5.13;;;0.80;;
21999;SDS011;11164;48.818;2.322;2022-08-21T15:52:36;2.75;;;0.90;;
21999;SDS011;11164;48.818;2.322;2022-08-21T15:55:03;2.88;;;1.00;;
21999;SDS011;11164;48.818;2.322;2022-08-21T15:57:31;2.33;;;0.80;;
21999;SDS011;11164;48.818;2.322;2022-08-21T16:00:04;4.05;;;1.00;;
21999;SDS011;11164;48.818;2.322;2022-08-21T16:02:53;3.25;;;1.00;;
21999;SDS011;11164;48.818;2.322;2022-08-21T16:05:21;2.65;;;0.65;;
21999;SDS011;11164;48.818;2.322;2022-08-21T16:07:47;3.95;;;0.80;;
21999;SDS011;11164;48.818;2.322;2022-08-21T16:10:15;3.22;;;0.70;;
21999;SDS011;11164;48.818;2.322;2022-08-21T16:12:47;4.40;;;1.00;;
21999;SDS011;11164;48.818;2.322;2022-08-21T16:15:16;3.25;;;0.70;;
21999;SDS011;11164;48.818;2.322;2022-08-21T16:17:43;2.63;;;0.90;;
21999;SDS011;11164;48.818;2.322;2022-08-21T16:20:13;2.38;;;0.75;;
21999;SDS011;11164;48.818;2.322;2022-08-21T16:22:41;2.95;;;0.73;;
21999;SDS011;11164;48.818;2.322;2022-08-21T16:25:06;3.72;;;0.82;;